sensor_id;sensor_type;location;lat;lon;timestamp;temperature;humidity
12971;DHT22;6550;48.650;8.774;2023-04-25T00:00:58;10.30;99.90
12971;DHT22;6550;48.650;8.774;2023-04-25T00:03:25;10.30;99.90
12971;DHT22;6550;48.650;8.774;2023-04-25T00:05:52;10.30;99.90
12971;DHT22;6550;48.650;8.774;2023-04-25T00:08:19;10.20;99.90
12971;DHT22;6550;48.650;8.774;2023-04-25T00:10:48;10.10;99.90
12971;DHT22;6550;48.650;8.774;2023-04-25T00:13:15;10.20;99.90
12971;DHT22;6550;48.650;8.774;2023-04-25T00:15:44;10.60;99.90
12971;DHT22;6550;48.650;8.774;2023-04-25T00:18:11;10.10;99.90
12971;DHT22;6550;48.650;8.774;2023-04-25T00:20:37;10.20;99.90
12971;DHT22;6550;48.650;8.774;2023-04-25T00:23:05;10.00;99.90
12971;DHT22;6550;48.650;8.774;2023-04-25T00:25:34;10.00;99.90
12971;DHT22;6550;48.650;8.774;2023-04-25T00:28:01;10.00;99.90
12971;DHT22;6550;48.650;8.774;2023-04-25T00:30:27;10.00;99.90
12971;DHT22;6550;48.650;8.774;2023-04-25T00:35:21;9.90;99.90
12971;DHT22;6550;48.650;8.774;2023-04-25T00:40:16;9.80;99.90
12971;DHT22;6550;48.650;8.774;2023-04-25T00:42:42;9.90;99.90
12971;DHT22;6550;48.650;8.774;2023-04-25T00:45:13;9.90;99.90
12971;DHT22;6550;48.650;8.774;2023-04-25T00:47:43;9.90;99.90
12971;DHT22;6550;48.650;8.774;2023-04-25T00:50:11;9.90;99.90
12971;DHT22;6550;48.650;8.774;2023-04-25T00:52:40;9.90;99.90
12971;DHT22;6550;48.650;8.774;2023-04-25T00:55:08;9.90;99.90
12971;DHT22;6550;48.650;8.774;2023-04-25T00:57:35;9.90;99.90
12971;DHT22;6550;48.650;8.774;2023-04-25T01:00:03;9.90;99.90
12971;DHT22;6550;48.650;8.774;2023-04-25T01:02:37;10.00;99.90
12971;DHT22;6550;48.650;8.774;2023-04-25T01:05:04;10.10;99.90
12971;DHT22;6550;48.650;8.774;2023-04-25T01:07:31;10.10;99.90
12971;DHT22;6550;48.650;8.774;2023-04-25T01:10:03;10.10;99.90
12971;DHT22;6550;48.650;8.774;2023-04-25T01:12:30;10.10;99.90
12971;DHT22;6550;48.650;8.774;2023-04-25T01:14:59;10.70;99.90
12971;DHT22;6550;48.650;8.774;2023-04-25T01:17:27;10.10;99.90
12971;DHT22;6550;48.650;8.774;2023-04-25T01:19:58;10.00;99.90
12971;DHT22;6550;48.650;8.774;2023-04-25T01:22:25;10.00;99.90
12971;DHT22;6550;48.650;8.774;2023-04-25T01:24:52;10.40;99.90
12971;DHT22;6550;48.650;8.774;2023-04-25T01:27:19;9.90;99.90
12971;DHT22;6550;48.650;8.774;2023-04-25T01:29:47;9.80;99.90
12971;DHT22;6550;48.650;8.774;2023-04-25T01:32:14;9.90;99.90
12971;DHT22;6550;48.650;8.774;2023-04-25T01:34:41;9.80;99.90
12971;DHT22;6550;48.650;8.774;2023-04-25T01:39:36;9.70;99.90
12971;DHT22;6550;48.650;8.774;2023-04-25T01:42:03;9.80;99.90
12971;DHT22;6550;48.650;8.774;2023-04-25T01:44:32;9.70;99.90
12971;DHT22;6550;48.650;8.774;2023-04-25T01:47:01;10.30;99.90
12971;DHT22;6550;48.650;8.774;2023-04-25T01:49:28;9.70;99.90
12971;DHT22;6550;48.650;8.774;2023-04-25T01:51:55;9.70;99.90
12971;DHT22;6550;48.650;8.774;2023-04-25T01:54:22;9.60;99.90
12971;DHT22;6550;48.650;8.774;2023-04-25T01:56:52;9.60;99.90
12971;DHT22;6550;48.650;8.774;2023-04-25T01:59:19;9.50;99.90
12971;DHT22;6550;48.650;8.774;2023-04-25T02:04:15;9.40;99.90
12971;DHT22;6550;48.650;8.774;2023-04-25T02:06:42;9.40;99.90
12971;DHT22;6550;48.650;8.774;2023-04-25T02:09:09;9.40;99.90
12971;DHT22;6550;48.650;8.774;2023-04-25T02:11:36;9.30;99.90
12971;DHT22;6550;48.650;8.774;2023-04-25T02:16:32;9.10;99.90
12971;DHT22;6550;48.650;8.774;2023-04-25T02:18:59;9.10;99.90
12971;DHT22;6550;48.650;8.774;2023-04-25T02:21:28;9.00;99.90
12971;DHT22;6550;48.650;8.774;2023-04-25T02:23:58;9.00;99.90
12971;DHT22;6550;48.650;8.774;2023-04-25T02:26:27;8.90;99.90
12971;DHT22;6550;48.650;8.774;2023-04-25T02:28:56;8.90;99.90
12971;DHT22;6550;48.650;8.774;2023-04-25T02:31:23;8.90;99.90
12971;DHT22;6550;48.650;8.774;2023-04-25T02:36:20;8.80;99.90
12971;DHT22;6550;48.650;8.774;2023-04-25T02:38:47;8.80;99.90
12971;DHT22;6550;48.650;8.774;2023-04-25T02:41:13;8.80;99.90
12971;DHT22;6550;48.650;8.774;2023-04-25T02:43:40;9.30;99.90
12971;DHT22;6550;48.650;8.774;2023-04-25T02:46:07;8.70;99.90
12971;DHT22;6550;48.650;8.774;2023-04-25T02:48:36;8.80;99.90
12971;DHT22;6550;48.650;8.774;2023-04-25T02:51:05;8.80;99.90
12971;DHT22;6550;48.650;8.774;2023-04-25T02:53:32;9.30;99.90
12971;DHT22;6550;48.650;8.774;2023-04-25T02:56:01;8.80;99.90
12971;DHT22;6550;48.650;8.774;2023-04-25T02:58:31;8.80;99.90
12971;DHT22;6550;48.650;8.774;2023-04-25T03:01:00;8.70;99.90
12971;DHT22;6550;48.650;8.774;2023-04-25T03:03:27;8.80;99.90
12971;DHT22;6550;48.650;8.774;2023-04-25T03:05:54;8.80;99.90
12971;DHT22;6550;48.650;8.774;2023-04-25T03:08:25;8.80;99.90
12971;DHT22;6550;48.650;8.774;2023-04-25T03:10:56;8.80;99.90
12971;DHT22;6550;48.650;8.774;2023-04-25T03:13:26;8.80;99.90
12971;DHT22;6550;48.650;8.774;2023-04-25T03:15:53;8.80;99.90
12971;DHT22;6550;48.650;8.774;2023-04-25T03:20:51;8.70;99.90
12971;DHT22;6550;48.650;8.774;2023-04-25T03:23:17;8.60;99.90
12971;DHT22;6550;48.650;8.774;2023-04-25T03:25:44;8.60;99.90
12971;DHT22;6550;48.650;8.774;2023-04-25T03:28:11;8.50;99.90
12971;DHT22;6550;48.650;8.774;2023-04-25T03:30:38;8.50;99.90
12971;DHT22;6550;48.650;8.774;2023-04-25T03:33:05;8.50;99.90
12971;DHT22;6550;48.650;8.774;2023-04-25T03:35:37;8.40;99.90
12971;DHT22;6550;48.650;8.774;2023-04-25T03:38:04;8.40;99.90
12971;DHT22;6550;48.650;8.774;2023-04-25T03:40:31;8.30;99.90
12971;DHT22;6550;48.650;8.774;2023-04-25T03:42:57;8.30;99.90
12971;DHT22;6550;48.650;8.774;2023-04-25T03:45:24;8.20;99.90
12971;DHT22;6550;48.650;8.774;2023-04-25T03:47:54;8.10;99.90
12971;DHT22;6550;48.650;8.774;2023-04-25T03:50:21;8.00;99.90
12971;DHT22;6550;48.650;8.774;2023-04-25T03:52:47;7.90;99.90
12971;DHT22;6550;48.650;8.774;2023-04-25T03:57:41;7.80;99.90
12971;DHT22;6550;48.650;8.774;2023-04-25T04:00:11;7.80;99.90
12971;DHT22;6550;48.650;8.774;2023-04-25T04:02:38;7.70;99.90
12971;DHT22;6550;48.650;8.774;2023-04-25T04:05:07;7.80;99.90
12971;DHT22;6550;48.650;8.774;2023-04-25T04:07:34;7.80;99.90
12971;DHT22;6550;48.650;8.774;2023-04-25T04:10:10;7.80;99.90
12971;DHT22;6550;48.650;8.774;2023-04-25T04:12:37;7.80;99.90
12971;DHT22;6550;48.650;8.774;2023-04-25T04:15:05;7.80;99.90
12971;DHT22;6550;48.650;8.774;2023-04-25T04:17:32;7.70;99.90
12971;DHT22;6550;48.650;8.774;2023-04-25T04:19:59;7.80;99.90
12971;DHT22;6550;48.650;8.774;2023-04-25T04:22:36;7.80;99.90
12971;DHT22;6550;48.650;8.774;2023-04-25T04:25:04;7.90;99.90
12971;DHT22;6550;48.650;8.774;2023-04-25T04:27:32;7.90;99.90
12971;DHT22;6550;48.650;8.774;2023-04-25T04:29:59;8.00;99.90
12971;DHT22;6550;48.650;8.774;2023-04-25T04:32:26;8.00;99.90
12971;DHT22;6550;48.650;8.774;2023-04-25T04:34:56;8.10;99.90
12971;DHT22;6550;48.650;8.774;2023-04-25T04:37:24;8.10;99.90
12971;DHT22;6550;48.650;8.774;2023-04-25T04:42:19;8.20;99.90
12971;DHT22;6550;48.650;8.774;2023-04-25T04:44:45;8.20;99.90
12971;DHT22;6550;48.650;8.774;2023-04-25T04:47:15;8.30;99.90
12971;DHT22;6550;48.650;8.774;2023-04-25T04:49:45;8.30;99.90
12971;DHT22;6550;48.650;8.774;2023-04-25T04:52:11;8.40;99.90
12971;DHT22;6550;48.650;8.774;2023-04-25T04:54:41;8.20;99.90
12971;DHT22;6550;48.650;8.774;2023-04-25T04:57:07;8.40;99.90
12971;DHT22;6550;48.650;8.774;2023-04-25T04:59:34;8.40;99.90
12971;DHT22;6550;48.650;8.774;2023-04-25T05:02:04;8.40;99.90
12971;DHT22;6550;48.650;8.774;2023-04-25T05:04:30;8.40;99.90
12971;DHT22;6550;48.650;8.774;2023-04-25T05:06:58;8.50;99.90
12971;DHT22;6550;48.650;8.774;2023-04-25T05:09:27;8.50;99.90
12971;DHT22;6550;48.650;8.774;2023-04-25T05:11:53;8.60;99.90
12971;DHT22;6550;48.650;8.774;2023-04-25T05:14:23;8.80;99.90
12971;DHT22;6550;48.650;8.774;2023-04-25T05:16:52;8.80;99.90
12971;DHT22;6550;48.650;8.774;2023-04-25T05:19:19;8.80;99.90
12971;DHT22;6550;48.650;8.774;2023-04-25T05:24:15;8.90;99.90
12971;DHT22;6550;48.650;8.774;2023-04-25T05:26:42;8.90;99.90
12971;DHT22;6550;48.650;8.774;2023-04-25T05:29:09;9.00;99.90
12971;DHT22;6550;48.650;8.774;2023-04-25T05:31:38;9.10;99.90
12971;DHT22;6550;48.650;8.774;2023-04-25T05:34:05;9.10;99.90
12971;DHT22;6550;48.650;8.774;2023-04-25T05:39:00;9.10;99.90
12971;DHT22;6550;48.650;8.774;2023-04-25T05:41:27;9.30;99.90
12971;DHT22;6550;48.650;8.774;2023-04-25T05:43:56;9.50;99.90
12971;DHT22;6550;48.650;8.774;2023-04-25T05:46:25;9.70;99.90
12971;DHT22;6550;48.650;8.774;2023-04-25T05:48:52;10.00;99.90
12971;DHT22;6550;48.650;8.774;2023-04-25T05:51:19;10.10;99.90
12971;DHT22;6550;48.650;8.774;2023-04-25T05:53:46;10.20;99.90
12971;DHT22;6550;48.650;8.774;2023-04-25T05:56:16;10.10;99.90
12971;DHT22;6550;48.650;8.774;2023-04-25T05:58:42;10.30;99.90
12971;DHT22;6550;48.650;8.774;2023-04-25T06:01:09;10.30;99.90
12971;DHT22;6550;48.650;8.774;2023-04-25T06:03:41;10.40;99.90
12971;DHT22;6550;48.650;8.774;2023-04-25T06:06:12;10.50;99.90
12971;DHT22;6550;48.650;8.774;2023-04-25T06:08:39;10.50;99.90
12971;DHT22;6550;48.650;8.774;2023-04-25T06:11:06;10.50;99.90
12971;DHT22;6550;48.650;8.774;2023-04-25T06:16:00;10.40;99.90
12971;DHT22;6550;48.650;8.774;2023-04-25T06:18:29;10.30;99.90
12971;DHT22;6550;48.650;8.774;2023-04-25T06:20:56;10.30;99.90
12971;DHT22;6550;48.650;8.774;2023-04-25T06:23:22;10.30;99.90
12971;DHT22;6550;48.650;8.774;2023-04-25T06:25:49;10.20;99.90
12971;DHT22;6550;48.650;8.774;2023-04-25T06:30:47;10.10;99.90
12971;DHT22;6550;48.650;8.774;2023-04-25T06:35:41;10.30;99.90
12971;DHT22;6550;48.650;8.774;2023-04-25T06:38:10;10.30;99.90
12971;DHT22;6550;48.650;8.774;2023-04-25T06:40:37;10.30;99.90
12971;DHT22;6550;48.650;8.774;2023-04-25T06:43:04;10.30;99.90
12971;DHT22;6550;48.650;8.774;2023-04-25T06:45:31;10.30;99.90
12971;DHT22;6550;48.650;8.774;2023-04-25T06:48:00;10.20;99.90
12971;DHT22;6550;48.650;8.774;2023-04-25T06:50:27;10.20;99.90
12971;DHT22;6550;48.650;8.774;2023-04-25T06:52:53;10.20;99.90
12971;DHT22;6550;48.650;8.774;2023-04-25T06:55:23;10.20;99.90
12971;DHT22;6550;48.650;8.774;2023-04-25T06:57:49;10.10;99.90
12971;DHT22;6550;48.650;8.774;2023-04-25T07:07:44;10.10;99.90
12971;DHT22;6550;48.650;8.774;2023-04-25T07:10:11;10.20;99.90
12971;DHT22;6550;48.650;8.774;2023-04-25T07:12:38;10.20;99.90
12971;DHT22;6550;48.650;8.774;2023-04-25T07:15:05;10.20;99.90
12971;DHT22;6550;48.650;8.774;2023-04-25T07:17:32;10.20;99.90
12971;DHT22;6550;48.650;8.774;2023-04-25T07:20:00;10.20;99.90
12971;DHT22;6550;48.650;8.774;2023-04-25T07:22:27;10.30;99.90
12971;DHT22;6550;48.650;8.774;2023-04-25T07:24:54;10.30;99.90
12971;DHT22;6550;48.650;8.774;2023-04-25T07:27:21;10.30;99.90
12971;DHT22;6550;48.650;8.774;2023-04-25T07:29:48;10.30;99.90
12971;DHT22;6550;48.650;8.774;2023-04-25T07:32:15;10.30;99.90
12971;DHT22;6550;48.650;8.774;2023-04-25T07:34:42;10.40;99.90
12971;DHT22;6550;48.650;8.774;2023-04-25T07:37:09;10.40;99.90
12971;DHT22;6550;48.650;8.774;2023-04-25T07:39:38;10.40;99.90
12971;DHT22;6550;48.650;8.774;2023-04-25T07:42:05;10.40;99.90
12971;DHT22;6550;48.650;8.774;2023-04-25T07:44:34;10.40;99.90
12971;DHT22;6550;48.650;8.774;2023-04-25T07:47:05;10.40;99.90
12971;DHT22;6550;48.650;8.774;2023-04-25T07:49:36;10.30;99.90
12971;DHT22;6550;48.650;8.774;2023-04-25T07:52:08;10.30;99.90
12971;DHT22;6550;48.650;8.774;2023-04-25T07:54:35;10.50;99.90
12971;DHT22;6550;48.650;8.774;2023-04-25T07:57:02;10.30;99.90
12971;DHT22;6550;48.650;8.774;2023-04-25T07:59:29;10.30;99.90
12971;DHT22;6550;48.650;8.774;2023-04-25T08:01:56;10.40;99.90
12971;DHT22;6550;48.650;8.774;2023-04-25T08:04:24;10.40;99.90
12971;DHT22;6550;48.650;8.774;2023-04-25T08:09:22;10.40;99.90
12971;DHT22;6550;48.650;8.774;2023-04-25T08:14:16;10.50;99.90
12971;DHT22;6550;48.650;8.774;2023-04-25T08:16:45;10.50;99.90
12971;DHT22;6550;48.650;8.774;2023-04-25T08:19:12;10.40;99.90
12971;DHT22;6550;48.650;8.774;2023-04-25T08:29:04;10.30;99.90
12971;DHT22;6550;48.650;8.774;2023-04-25T08:31:32;10.30;99.90
12971;DHT22;6550;48.650;8.774;2023-04-25T08:33:59;10.20;99.90
12971;DHT22;6550;48.650;8.774;2023-04-25T08:36:26;10.20;99.90
12971;DHT22;6550;48.650;8.774;2023-04-25T08:39:05;10.20;99.90
12971;DHT22;6550;48.650;8.774;2023-04-25T08:44:02;10.20;99.90
12971;DHT22;6550;48.650;8.774;2023-04-25T08:46:30;10.20;99.90
12971;DHT22;6550;48.650;8.774;2023-04-25T08:49:03;10.20;99.90
12971;DHT22;6550;48.650;8.774;2023-04-25T08:51:33;10.20;99.90
12971;DHT22;6550;48.650;8.774;2023-04-25T08:54:11;10.20;99.90
12971;DHT22;6550;48.650;8.774;2023-04-25T08:56:44;10.30;99.90
12971;DHT22;6550;48.650;8.774;2023-04-25T08:59:14;10.40;99.90
12971;DHT22;6550;48.650;8.774;2023-04-25T09:01:43;10.30;99.90
12971;DHT22;6550;48.650;8.774;2023-04-25T09:04:13;10.30;99.90
12971;DHT22;6550;48.650;8.774;2023-04-25T09:09:08;10.10;99.90
12971;DHT22;6550;48.650;8.774;2023-04-25T09:22:07;10.20;99.90
12971;DHT22;6550;48.650;8.774;2023-04-25T09:27:07;10.40;99.90
12971;DHT22;6550;48.650;8.774;2023-04-25T09:29:39;10.40;99.90
12971;DHT22;6550;48.650;8.774;2023-04-25T09:34:47;10.50;99.90
12971;DHT22;6550;48.650;8.774;2023-04-25T09:37:18;10.40;99.90
12971;DHT22;6550;48.650;8.774;2023-04-25T09:39:49;10.40;99.90
12971;DHT22;6550;48.650;8.774;2023-04-25T09:42:20;10.50;99.90
12971;DHT22;6550;48.650;8.774;2023-04-25T09:44:52;10.50;99.90
12971;DHT22;6550;48.650;8.774;2023-04-25T09:47:20;10.70;99.90
12971;DHT22;6550;48.650;8.774;2023-04-25T09:49:49;10.80;99.90
12971;DHT22;6550;48.650;8.774;2023-04-25T09:52:18;10.70;99.90
12971;DHT22;6550;48.650;8.774;2023-04-25T09:54:49;10.80;99.90
12971;DHT22;6550;48.650;8.774;2023-04-25T09:57:21;11.00;99.90
12971;DHT22;6550;48.650;8.774;2023-04-25T09:59:52;11.00;99.90
12971;DHT22;6550;48.650;8.774;2023-04-25T10:02:21;11.10;99.90
12971;DHT22;6550;48.650;8.774;2023-04-25T10:04:50;11.20;99.90
12971;DHT22;6550;48.650;8.774;2023-04-25T10:07:22;11.40;99.90
12971;DHT22;6550;48.650;8.774;2023-04-25T10:10:02;11.50;99.90
12971;DHT22;6550;48.650;8.774;2023-04-25T10:14:58;11.70;99.90
12971;DHT22;6550;48.650;8.774;2023-04-25T10:17:27;11.80;99.90
12971;DHT22;6550;48.650;8.774;2023-04-25T10:19:55;11.90;99.90
12971;DHT22;6550;48.650;8.774;2023-04-25T10:22:34;12.00;99.90
12971;DHT22;6550;48.650;8.774;2023-04-25T10:25:02;12.10;99.90
12971;DHT22;6550;48.650;8.774;2023-04-25T10:27:32;12.20;99.90
12971;DHT22;6550;48.650;8.774;2023-04-25T10:35:19;12.70;99.90
12971;DHT22;6550;48.650;8.774;2023-04-25T10:38:19;12.70;99.90
12971;DHT22;6550;48.650;8.774;2023-04-25T10:41:05;13.00;99.90
12971;DHT22;6550;48.650;8.774;2023-04-25T10:46:29;13.50;99.90
12971;DHT22;6550;48.650;8.774;2023-04-25T10:49:02;13.70;99.90
12971;DHT22;6550;48.650;8.774;2023-04-25T10:51:31;14.00;99.60
12971;DHT22;6550;48.650;8.774;2023-04-25T10:54:22;14.30;99.10
12971;DHT22;6550;48.650;8.774;2023-04-25T10:56:51;14.30;99.40
12971;DHT22;6550;48.650;8.774;2023-04-25T10:59:25;14.40;99.20
12971;DHT22;6550;48.650;8.774;2023-04-25T11:01:53;14.70;98.70
12971;DHT22;6550;48.650;8.774;2023-04-25T11:09:57;15.10;97.40
12971;DHT22;6550;48.650;8.774;2023-04-25T11:12:29;15.20;97.00
12971;DHT22;6550;48.650;8.774;2023-04-25T11:15:00;15.00;97.30
12971;DHT22;6550;48.650;8.774;2023-04-25T11:17:32;14.80;97.60
12971;DHT22;6550;48.650;8.774;2023-04-25T11:20:00;14.90;97.90
12971;DHT22;6550;48.650;8.774;2023-04-25T11:22:31;14.70;98.40
12971;DHT22;6550;48.650;8.774;2023-04-25T11:24:58;14.30;98.20
12971;DHT22;6550;48.650;8.774;2023-04-25T11:27:25;14.20;98.60
12971;DHT22;6550;48.650;8.774;2023-04-25T11:29:51;14.00;99.60
12971;DHT22;6550;48.650;8.774;2023-04-25T11:32:18;14.20;99.60
12971;DHT22;6550;48.650;8.774;2023-04-25T11:34:47;14.00;99.70
12971;DHT22;6550;48.650;8.774;2023-04-25T11:37:16;14.30;99.90
12971;DHT22;6550;48.650;8.774;2023-04-25T11:39:47;14.30;99.90
12971;DHT22;6550;48.650;8.774;2023-04-25T11:42:14;13.90;99.90
12971;DHT22;6550;48.650;8.774;2023-04-25T11:44:44;14.00;99.90
12971;DHT22;6550;48.650;8.774;2023-04-25T11:47:10;13.70;99.90
12971;DHT22;6550;48.650;8.774;2023-04-25T11:49:40;13.30;99.90
12971;DHT22;6550;48.650;8.774;2023-04-25T11:52:09;13.20;99.90
12971;DHT22;6550;48.650;8.774;2023-04-25T11:54:38;13.20;99.90
12971;DHT22;6550;48.650;8.774;2023-04-25T11:57:05;13.20;99.90
12971;DHT22;6550;48.650;8.774;2023-04-25T12:01:59;13.00;99.90
12971;DHT22;6550;48.650;8.774;2023-04-25T12:04:30;13.00;99.90
12971;DHT22;6550;48.650;8.774;2023-04-25T12:07:01;12.70;99.90
12971;DHT22;6550;48.650;8.774;2023-04-25T12:09:32;12.60;99.90
12971;DHT22;6550;48.650;8.774;2023-04-25T12:12:02;12.50;99.90
12971;DHT22;6550;48.650;8.774;2023-04-25T12:14:35;12.50;99.90
12971;DHT22;6550;48.650;8.774;2023-04-25T12:17:04;12.70;99.90
12971;DHT22;6550;48.650;8.774;2023-04-25T12:19:38;12.70;99.90
12971;DHT22;6550;48.650;8.774;2023-04-25T12:22:21;12.60;99.90
12971;DHT22;6550;48.650;8.774;2023-04-25T12:24:48;12.90;99.90
12971;DHT22;6550;48.650;8.774;2023-04-25T12:27:18;13.10;99.90
12971;DHT22;6550;48.650;8.774;2023-04-25T12:29:53;13.10;99.90
12971;DHT22;6550;48.650;8.774;2023-04-25T12:32:20;13.00;99.90
12971;DHT22;6550;48.650;8.774;2023-04-25T12:34:47;13.00;99.70
12971;DHT22;6550;48.650;8.774;2023-04-25T12:37:16;13.50;99.80
12971;DHT22;6550;48.650;8.774;2023-04-25T12:39:43;13.10;99.40
12971;DHT22;6550;48.650;8.774;2023-04-25T12:42:10;13.10;99.10
12971;DHT22;6550;48.650;8.774;2023-04-25T12:44:39;13.10;98.80
12971;DHT22;6550;48.650;8.774;2023-04-25T12:47:07;13.30;98.70
12971;DHT22;6550;48.650;8.774;2023-04-25T12:49:34;13.60;99.00
12971;DHT22;6550;48.650;8.774;2023-04-25T12:52:05;13.50;98.50
12971;DHT22;6550;48.650;8.774;2023-04-25T12:54:36;14.60;99.00
12971;DHT22;6550;48.650;8.774;2023-04-25T12:57:03;13.60;98.90
12971;DHT22;6550;48.650;8.774;2023-04-25T12:59:30;13.70;98.00
12971;DHT22;6550;48.650;8.774;2023-04-25T13:01:57;14.20;97.80
12971;DHT22;6550;48.650;8.774;2023-04-25T13:06:51;14.50;96.60
12971;DHT22;6550;48.650;8.774;2023-04-25T13:09:25;14.90;96.00
12971;DHT22;6550;48.650;8.774;2023-04-25T13:11:53;15.30;95.70
12971;DHT22;6550;48.650;8.774;2023-04-25T13:14:24;15.80;95.30
12971;DHT22;6550;48.650;8.774;2023-04-25T13:16:51;16.40;94.70
12971;DHT22;6550;48.650;8.774;2023-04-25T13:19:21;16.80;93.80
12971;DHT22;6550;48.650;8.774;2023-04-25T13:21:47;17.10;92.90
12971;DHT22;6550;48.650;8.774;2023-04-25T13:24:14;17.30;92.50
12971;DHT22;6550;48.650;8.774;2023-04-25T13:26:44;17.20;92.60
12971;DHT22;6550;48.650;8.774;2023-04-25T13:31:38;16.80;92.70
12971;DHT22;6550;48.650;8.774;2023-04-25T13:34:05;16.60;92.20
12971;DHT22;6550;48.650;8.774;2023-04-25T13:36:33;16.30;92.10
12971;DHT22;6550;48.650;8.774;2023-04-25T13:39:06;15.90;92.10
12971;DHT22;6550;48.650;8.774;2023-04-25T13:41:35;15.50;92.60
12971;DHT22;6550;48.650;8.774;2023-04-25T13:44:02;15.20;93.10
12971;DHT22;6550;48.650;8.774;2023-04-25T13:46:28;14.80;93.80
12971;DHT22;6550;48.650;8.774;2023-04-25T13:51:40;14.80;94.40
12971;DHT22;6550;48.650;8.774;2023-04-25T13:54:11;14.90;94.30
12971;DHT22;6550;48.650;8.774;2023-04-25T13:56:38;15.00;93.90
12971;DHT22;6550;48.650;8.774;2023-04-25T13:59:08;15.20;93.50
12971;DHT22;6550;48.650;8.774;2023-04-25T14:01:35;15.30;93.10
12971;DHT22;6550;48.650;8.774;2023-04-25T14:04:02;15.50;92.90
12971;DHT22;6550;48.650;8.774;2023-04-25T14:06:35;16.00;92.70
12971;DHT22;6550;48.650;8.774;2023-04-25T14:09:04;16.20;92.10
12971;DHT22;6550;48.650;8.774;2023-04-25T14:11:33;16.20;92.20
12971;DHT22;6550;48.650;8.774;2023-04-25T14:13:59;15.90;91.90
12971;DHT22;6550;48.650;8.774;2023-04-25T14:16:29;15.60;91.90
12971;DHT22;6550;48.650;8.774;2023-04-25T14:18:58;15.60;91.90
12971;DHT22;6550;48.650;8.774;2023-04-25T14:21:27;15.40;92.00
12971;DHT22;6550;48.650;8.774;2023-04-25T14:23:56;15.50;92.10
12971;DHT22;6550;48.650;8.774;2023-04-25T14:26:23;15.40;91.80
12971;DHT22;6550;48.650;8.774;2023-04-25T14:28:55;15.40;91.80
12971;DHT22;6550;48.650;8.774;2023-04-25T14:31:21;15.70;92.10
12971;DHT22;6550;48.650;8.774;2023-04-25T14:33:51;16.30;91.60
12971;DHT22;6550;48.650;8.774;2023-04-25T14:36:21;16.40;89.80
12971;DHT22;6550;48.650;8.774;2023-04-25T14:38:50;16.50;89.10
12971;DHT22;6550;48.650;8.774;2023-04-25T14:41:17;17.00;88.60
12971;DHT22;6550;48.650;8.774;2023-04-25T14:43:43;17.50;86.90
12971;DHT22;6550;48.650;8.774;2023-04-25T14:46:14;18.00;85.80
12971;DHT22;6550;48.650;8.774;2023-04-25T14:48:40;18.20;84.90
12971;DHT22;6550;48.650;8.774;2023-04-25T14:51:07;18.60;83.90
12971;DHT22;6550;48.650;8.774;2023-04-25T14:53:34;18.50;85.30
12971;DHT22;6550;48.650;8.774;2023-04-25T14:56:01;18.90;83.90
12971;DHT22;6550;48.650;8.774;2023-04-25T14:58:33;19.60;84.30
12971;DHT22;6550;48.650;8.774;2023-04-25T15:01:00;19.50;80.10
12971;DHT22;6550;48.650;8.774;2023-04-25T15:03:29;19.70;81.90
12971;DHT22;6550;48.650;8.774;2023-04-25T15:05:57;20.10;79.60
12971;DHT22;6550;48.650;8.774;2023-04-25T15:08:24;20.30;79.40
12971;DHT22;6550;48.650;8.774;2023-04-25T15:10:52;20.60;79.00
12971;DHT22;6550;48.650;8.774;2023-04-25T15:13:22;21.10;76.60
12971;DHT22;6550;48.650;8.774;2023-04-25T15:15:49;20.40;73.30
12971;DHT22;6550;48.650;8.774;2023-04-25T15:18:19;19.90;72.80
12971;DHT22;6550;48.650;8.774;2023-04-25T15:20:52;19.70;73.90
12971;DHT22;6550;48.650;8.774;2023-04-25T15:23:19;19.60;74.00
12971;DHT22;6550;48.650;8.774;2023-04-25T15:25:49;19.40;73.80
12971;DHT22;6550;48.650;8.774;2023-04-25T15:28:16;19.60;74.50
12971;DHT22;6550;48.650;8.774;2023-04-25T15:30:43;19.60;72.70
12971;DHT22;6550;48.650;8.774;2023-04-25T15:33:10;19.40;72.80
12971;DHT22;6550;48.650;8.774;2023-04-25T15:35:42;19.20;72.30
12971;DHT22;6550;48.650;8.774;2023-04-25T15:38:08;18.90;73.00
12971;DHT22;6550;48.650;8.774;2023-04-25T15:40:37;18.70;74.10
12971;DHT22;6550;48.650;8.774;2023-04-25T15:43:04;18.80;74.10
12971;DHT22;6550;48.650;8.774;2023-04-25T15:45:30;19.00;74.60
12971;DHT22;6550;48.650;8.774;2023-04-25T15:47:58;19.00;73.90
12971;DHT22;6550;48.650;8.774;2023-04-25T15:50:27;18.90;73.30
12971;DHT22;6550;48.650;8.774;2023-04-25T15:52:54;18.80;74.20
12971;DHT22;6550;48.650;8.774;2023-04-25T15:55:21;18.70;75.30
12971;DHT22;6550;48.650;8.774;2023-04-25T15:57:48;18.80;74.40
12971;DHT22;6550;48.650;8.774;2023-04-25T16:00:16;18.00;74.10
12971;DHT22;6550;48.650;8.774;2023-04-25T16:02:48;17.80;74.90
12971;DHT22;6550;48.650;8.774;2023-04-25T16:05:17;17.90;74.20
12971;DHT22;6550;48.650;8.774;2023-04-25T16:07:45;17.40;74.70
12971;DHT22;6550;48.650;8.774;2023-04-25T16:10:17;17.40;76.40
12971;DHT22;6550;48.650;8.774;2023-04-25T16:12:48;17.80;75.70
12971;DHT22;6550;48.650;8.774;2023-04-25T16:15:17;17.60;74.50
12971;DHT22;6550;48.650;8.774;2023-04-25T16:17:44;17.90;74.30
12971;DHT22;6550;48.650;8.774;2023-04-25T16:20:11;18.20;74.30
12971;DHT22;6550;48.650;8.774;2023-04-25T16:22:40;18.20;74.10
12971;DHT22;6550;48.650;8.774;2023-04-25T16:25:10;18.10;73.80
12971;DHT22;6550;48.650;8.774;2023-04-25T16:27:40;17.90;73.10
12971;DHT22;6550;48.650;8.774;2023-04-25T16:30:09;17.70;73.40
12971;DHT22;6550;48.650;8.774;2023-04-25T16:32:40;17.50;75.30
12971;DHT22;6550;48.650;8.774;2023-04-25T16:35:10;17.40;74.70
12971;DHT22;6550;48.650;8.774;2023-04-25T16:37:40;17.30;76.10
12971;DHT22;6550;48.650;8.774;2023-04-25T16:40:10;16.90;74.70
12971;DHT22;6550;48.650;8.774;2023-04-25T16:42:37;16.70;76.00
12971;DHT22;6550;48.650;8.774;2023-04-25T16:45:04;16.70;77.40
12971;DHT22;6550;48.650;8.774;2023-04-25T16:47:36;16.50;77.40
12971;DHT22;6550;48.650;8.774;2023-04-25T16:50:06;16.20;79.30
12971;DHT22;6550;48.650;8.774;2023-04-25T16:52:33;16.10;79.30
12971;DHT22;6550;48.650;8.774;2023-04-25T16:55:02;16.00;80.70
12971;DHT22;6550;48.650;8.774;2023-04-25T16:57:29;15.80;81.20
12971;DHT22;6550;48.650;8.774;2023-04-25T16:59:56;15.70;81.10
12971;DHT22;6550;48.650;8.774;2023-04-25T17:02:22;15.50;81.80
12971;DHT22;6550;48.650;8.774;2023-04-25T17:04:50;15.50;82.50
12971;DHT22;6550;48.650;8.774;2023-04-25T17:07:19;15.40;83.20
12971;DHT22;6550;48.650;8.774;2023-04-25T17:09:50;15.30;83.20
12971;DHT22;6550;48.650;8.774;2023-04-25T17:12:17;15.20;83.80
12971;DHT22;6550;48.650;8.774;2023-04-25T17:14:45;15.10;84.30
12971;DHT22;6550;48.650;8.774;2023-04-25T17:17:12;14.80;84.30
12971;DHT22;6550;48.650;8.774;2023-04-25T17:19:39;14.60;84.70
12971;DHT22;6550;48.650;8.774;2023-04-25T17:22:06;14.50;84.80
12971;DHT22;6550;48.650;8.774;2023-04-25T17:24:32;14.30;85.80
12971;DHT22;6550;48.650;8.774;2023-04-25T17:27:01;14.10;86.70
12971;DHT22;6550;48.650;8.774;2023-04-25T17:29:31;14.00;87.10
12971;DHT22;6550;48.650;8.774;2023-04-25T17:31:59;14.20;87.40
12971;DHT22;6550;48.650;8.774;2023-04-25T17:34:26;13.90;87.40
12971;DHT22;6550;48.650;8.774;2023-04-25T17:36:55;13.70;86.80
12971;DHT22;6550;48.650;8.774;2023-04-25T17:39:22;14.00;88.00